Salida, CO

9:08 PM MDT on September 15, 2014 (GMT -0600)
Monarch Pass | Change Station
CLOSE
Current Station
Airport
Location: Monarch Pass,
Elevation: 12031 ft
Nearby Weather Stations

Elev 12031 ft 38.48 °N, 106.32 °W | Updated 4 minutes ago

Partly Cloudy
Partly Cloudy
43 °F
Feels Like 38 °F
N
9
Wind Variable Wind from ENE

Today
High -- | Low -- °F
--% Chance of Precip.
Yesterday
High -- | Low -- °F
Precip. -- in
6:45 AM 7:12 PM
Waning Gibbous, 50% visible
Pressure 30.78 in
Visibility 10.0 miles
Clouds Mostly Cloudy 8000 ft
Mostly Cloudy 9500 ft
Windchill 38 °F
Dew Point 39 °F
Humidity 87%
Rainfall 0.00 in
Snow Depth 187 in , 0 in , 0 in
UV 0 out of 12
Pollen 5.60 out of 12
Air Quality Not available.
Flu Activity Not available.
METAR KMYP 160304Z AUTO 06008KT 10SM BKN080 BKN095 06/04 A3078 RMK AO2

More Conditions Fewer Conditions

Pressure 30.78 in
Visibility 10.0 miles
Clouds Mostly Cloudy 8000 ft
Mostly Cloudy 9500 ft
Windchill 38 °F
Dew Point 39 °F
Humidity 87%
Rainfall 0.00 in
Snow Depth 187 in , 0 in , 0 in
UV 0 out of 12
Pollen 5.60 out of 12
Air Quality Not available.
Flu Activity Not available.
METAR KMYP 160304Z AUTO 06008KT 10SM BKN080 BKN095 06/04 A3078 RMK AO2

More Conditions Fewer Conditions

10-Day Weather Forecast

Almanac

Astronomy

Sep. 15, 2014 Rise Set
Actual Time 6:45 AM MDT 7:12 PM MDT
Civil Twilight 6:19 AM MDT 7:38 PM MDT
Nautical Twilight 5:47 AM MDT 8:09 PM MDT
Astronomical Twilight 5:15 AM MDT 8:41 PM MDT
Moon No Moon Rise 1:43 PM MDT (9/15)
Length of Visible Light 13h 19m
Length of Day
12h 26m
Tomorrow will be 2m 28s shorter.
Waning Gibbous, 50% of the Moon is Illuminated
Today
Waning Gibbous
Sep 24
New
Oct 1
First Quarter
Oct 8
Full
Oct 15
Last Quarter

Today's Extremes

State Highs State Lows

Community

WunderPhotos

Upload Photos

1,753,689 photos uploaded!

Nearby

Snow Depth

Station Depth Elevation
Independence Pass 187 in 10600 ft
Lake Irene 0 in 10700 ft
Roach 0 in 9700 ft
Beartown 0 in 11600 ft
Copeland Lake 0 in 8600 ft

Earthquake Activity

City Distance Mag. Time & Date
No recent earthquake activity has been reported nearby.
Minimum magnitude displayed is 2.5.

Coastal Water Temperatures

Place Temperature
No Stations Reporting

Nearby Weather Stations